Time;durP1;ratioP1;P1;durP2;ratioP2;P2;SDS_P1;SDS_P2;PMS_P1;PMS_P2;Temp;Humidity;BMP_temperature;BMP_pressure;BME280_temperature;BME280_humidity;BME280_pressure;Samples;Min_cycle;Max_cycle;Signal;HPM_P1;HPM_P2
2023/07/07 04:08:23;;;;;;;7.32;4.43;;;;;;;22.51;55.30;100742.53;5613699;31;76348;-58
2023/07/07 04:11:30;;;;;;;7.93;4.40;;;;;;;22.51;55.30;100742.53;5603476;31;33358;-58
2023/07/07 04:14:32;;;;;;;7.12;4.05;;;;;;;22.03;60.10;100750.66;5583112;31;33534;-59
2023/07/07 04:17:35;;;;;;;6.78;4.30;;;;;;;22.04;56.54;100760.41;5564141;32;33660;-59
2023/07/07 04:20:37;;;;;;;5.20;3.65;;;;;;;22.13;57.30;100757.53;5564231;32;33573;-59
2023/07/07 04:23:42;;;;;;;7.40;4.28;;;;;;;22.14;63.26;100767.31;5568389;32;33540;-59
2023/07/07 04:26:45;;;;;;;6.00;4.00;;;;;;;22.16;57.71;100764.28;5583761;31;34312;-59
2023/07/07 04:29:47;;;;;;;6.10;4.03;;;;;;;22.21;55.45;100767.53;5580426;31;34230;-58
2023/07/07 04:32:49;;;;;;;8.02;4.25;;;;;;;22.30;63.89;100766.59;5575828;31;34312;-59
2023/07/07 04:35:54;;;;;;;7.07;4.22;;;;;;;22.36;60.60;100776.13;5563908;32;33200;-59
2023/07/07 04:38:56;;;;;;;7.12;4.05;;;;;;;22.40;57.34;100772.31;5582948;31;32239;-59
2023/07/07 04:41:58;;;;;;;6.15;4.18;;;;;;;22.49;55.07;100775.69;5575262;32;33153;-58
2023/07/07 04:45:01;;;;;;;5.80;3.97;;;;;;;22.50;55.27;100774.53;5563945;32;33710;-58
2023/07/07 04:48:03;;;;;;;6.60;4.28;;;;;;;22.51;55.17;100780.78;5573363;31;33755;-58
2023/07/07 04:51:08;;;;;;;6.03;4.00;;;;;;;22.49;56.31;100789.34;5582374;31;33561;-59
2023/07/07 04:54:12;;;;;;;6.30;4.20;;;;;;;22.46;54.53;100787.31;5583350;32;33567;-59
2023/07/07 04:57:14;;;;;;;7.35;4.47;;;;;;;22.51;52.24;100789.78;5583089;31;33581;-58
2023/07/07 05:00:17;;;;;;;9.95;5.05;;;;;;;22.54;52.12;100787.50;5582518;31;33619;-59
2023/07/07 05:03:19;;;;;;;7.68;4.07;;;;;;;22.45;52.84;100793.94;5583163;32;34855;-59
2023/07/07 05:06:24;;;;;;;6.07;4.12;;;;;;;22.54;52.27;100793.75;5581461;31;33424;-59
2023/07/07 05:09:26;;;;;;;7.80;4.32;;;;;;;22.40;53.12;100790.66;5583016;31;33664;-59
2023/07/07 05:12:29;;;;;;;6.80;4.30;;;;;;;22.43;57.91;100795.41;5582742;32;34351;-58
2023/07/07 05:15:33;;;;;;;6.68;4.10;;;;;;;22.39;53.47;100787.13;5583028;31;33675;-60
2023/07/07 05:18:36;;;;;;;7.22;4.53;;;;;;;22.39;54.49;100797.28;5574768;32;33593;-59
2023/07/07 05:21:38;;;;;;;8.10;4.28;;;;;;;22.48;53.92;100803.34;5569752;32;34169;-59
2023/07/07 05:24:41;;;;;;;9.98;4.75;;;;;;;22.54;53.89;100798.44;5570202;32;33616;-59
2023/07/07 05:27:43;;;;;;;7.20;4.43;;;;;;;22.50;53.35;100810.06;5569726;32;34348;-59
2023/07/07 05:30:46;;;;;;;8.93;4.32;;;;;;;22.60;54.58;100802.50;5570062;32;33554;-59
2023/07/07 05:33:48;;;;;;;8.52;4.47;;;;;;;22.60;55.20;100813.41;5569468;32;33869;-59
2023/07/07 05:36:50;;;;;;;7.82;4.50;;;;;;;22.51;54.18;100811.62;5569797;32;33764;-59
2023/07/07 05:39:53;;;;;;;8.75;4.32;;;;;;;22.55;54.33;100809.00;5569730;32;33696;-59
2023/07/07 05:42:55;;;;;;;10.77;3.83;;;;;;;22.70;56.55;100810.94;5567689;32;34196;-60
2023/07/07 05:45:59;;;;;;;8.18;4.53;;;;;;;22.64;55.18;100806.87;5569311;32;34420;-59
2023/07/07 05:49:02;;;;;;;9.10;4.03;;;;;;;22.66;52.54;100818.28;5569287;32;34317;-59
2023/07/07 05:52:07;;;;;;;8.68;4.15;;;;;;;22.78;56.09;100813.88;5567117;32;34042;-61
2023/07/07 05:55:23;;;;;;;8.17;4.43;;;;;;;22.73;56.30;100810.25;5549323;32;34057;-59
2023/07/07 05:58:25;;;;;;;9.15;4.50;;;;;;;22.73;56.58;100810.25;5566017;32;34340;-59
2023/07/07 06:01:28;;;;;;;10.13;4.72;;;;;;;22.79;53.11;100819.00;5568109;32;33727;-59
2023/07/07 06:04:30;;;;;;;9.82;4.47;;;;;;;22.99;53.24;100819.91;5550204;32;34500;-60
2023/07/07 06:07:33;;;;;;;8.40;4.60;;;;;;;22.98;55.01;100830.06;5558360;32;33758;-60
2023/07/07 06:10:35;;;;;;;8.15;4.57;;;;;;;23.11;55.67;100825.28;5566716;32;33586;-59
2023/07/07 06:13:37;;;;;;;9.15;4.70;;;;;;;23.13;54.42;100825.72;5569261;32;33564;-59
2023/07/07 06:16:40;;;;;;;8.55;4.50;;;;;;;23.17;54.35;100839.47;5557648;32;33649;-59
2023/07/07 06:19:43;;;;;;;10.18;5.07;;;;;;;23.26;54.20;100833.81;5569269;32;34279;-59
2023/07/07 06:22:45;;;;;;;7.12;4.18;;;;;;;23.25;53.14;100834.97;5567858;32;33651;-60
2023/07/07 06:25:48;;;;;;;9.10;4.62;;;;;;;23.19;52.86;100848.13;5563609;32;33640;-60
2023/07/07 06:28:51;;;;;;;8.63;4.62;;;;;;;23.10;53.86;100845.56;5567452;32;33593;-59
2023/07/07 06:31:53;;;;;;;6.72;4.28;;;;;;;23.01;53.64;100846.87;5566473;32;34345;-59
2023/07/07 06:34:56;;;;;;;8.55;5.10;;;;;;;23.16;54.34;100848.81;5568907;32;34373;-60
2023/07/07 06:37:58;;;;;;;9.02;4.68;;;;;;;23.26;56.99;100848.28;5564124;32;34259;-60
2023/07/07 06:41:01;;;;;;;10.05;4.50;;;;;;;23.31;56.33;100849.94;5569049;32;33310;-60
2023/07/07 06:44:03;;;;;;;9.65;4.22;;;;;;;23.37;60.17;100856.72;5568060;32;33758;-60
2023/07/07 06:47:11;;;;;;;7.22;4.40;;;;;;;23.55;60.82;100859.91;5568955;32;34157;-59
2023/07/07 06:50:24;;;;;;;8.68;4.22;;;;;;;23.61;57.68;100863.94;5567455;32;34386;-58
2023/07/07 06:53:26;;;;;;;8.15;4.55;;;;;;;23.52;55.00;100866.09;5567025;32;33656;-59
2023/07/07 06:56:29;;;;;;;13.75;4.60;;;;;;;23.53;55.09;100862.19;5569037;32;33751;-59
2023/07/07 06:59:31;;;;;;;9.93;4.57;;;;;;;23.65;54.87;100870.28;5549790;32;33574;-59
2023/07/07 07:02:34;;;;;;;8.13;4.22;;;;;;;23.72;55.11;100867.72;5567686;32;32379;-58
2023/07/07 07:05:36;;;;;;;8.68;4.22;;;;;;;23.89;54.73;100864.59;5568336;32;33351;-59
2023/07/07 07:08:38;;;;;;;7.95;4.20;;;;;;;24.04;53.65;100865.69;5568073;32;33549;-59
2023/07/07 07:11:41;;;;;;;7.72;4.62;;;;;;;24.19;53.20;100861.28;5566936;32;34386;-59
2023/07/07 07:14:43;;;;;;;7.57;4.28;;;;;;;24.27;51.90;100865.78;5566971;32;33606;-59
2023/07/07 07:17:45;;;;;;;8.45;4.45;;;;;;;24.37;53.91;100867.91;5568356;32;34242;-59
2023/07/07 07:20:49;;;;;;;8.20;4.43;;;;;;;24.46;51.42;100870.44;5565972;32;33686;-59
2023/07/07 07:23:52;;;;;;;6.45;4.35;;;;;;;24.68;50.65;100877.13;5567216;32;33874;-59
2023/07/07 07:26:54;;;;;;;8.50;4.10;;;;;;;24.76;54.51;100876.09;5568512;32;33768;-59
2023/07/07 07:29:57;;;;;;;6.32;4.53;;;;;;;24.96;53.49;100885.06;5568702;32;34342;-59
2023/07/07 07:33:04;;;;;;;7.57;4.10;;;;;;;24.99;49.92;100878.84;5568206;32;33940;-59
2023/07/07 07:36:06;;;;;;;8.48;4.35;;;;;;;24.91;48.16;100881.84;5567794;32;33599;-59
2023/07/07 07:39:08;;;;;;;7.32;3.75;;;;;;;24.82;51.05;100882.06;5568441;32;33596;-59
2023/07/07 07:42:11;;;;;;;9.45;4.55;;;;;;;24.99;51.07;100894.50;5566554;32;33860;-60
2023/07/07 07:45:17;;;;;;;11.23;4.70;;;;;;;24.90;50.08;100893.94;5567243;32;34383;-59
2023/07/07 07:48:19;;;;;;;11.50;4.75;;;;;;;24.79;50.32;100894.56;5567201;32;33601;-59
2023/07/07 07:51:22;;;;;;;9.95;4.78;;;;;;;24.85;48.11;100893.09;5568427;32;33684;-59
2023/07/07 07:54:38;;;;;;;9.30;4.78;;;;;;;24.97;49.55;100894.09;5568279;32;34381;-60
2023/07/07 07:57:41;;;;;;;8.27;4.35;;;;;;;25.17;48.71;100895.66;5568147;32;33622;-60
2023/07/07 08:00:44;;;;;;;7.12;4.60;;;;;;;25.30;47.20;100888.81;5566980;32;33634;-59
2023/07/07 08:03:46;;;;;;;9.23;4.82;;;;;;;25.30;47.03;100896.25;5568462;32;33505;-60
2023/07/07 08:06:51;;;;;;;8.35;4.75;;;;;;;25.43;48.02;100905.88;5564719;32;33354;-60
2023/07/07 08:09:54;;;;;;;;;;;;;;;25.48;46.02;100902.00;5568002;32;33679;-60
2023/07/07 08:12:56;;;;;;;6.55;4.65;;;;;;;25.48;45.82;100905.53;5568039;32;34151;-60
2023/07/07 08:15:58;;;;;;;6.93;4.85;;;;;;;25.45;47.05;100900.00;5568270;32;34261;-60
2023/07/07 08:19:01;;;;;;;9.70;4.32;;;;;;;25.41;44.46;100899.16;5564785;32;33882;-60
2023/07/07 08:22:06;;;;;;;8.93;4.70;;;;;;;25.37;46.74;100901.06;5556679;32;34284;-60
2023/07/07 08:25:09;;;;;;;9.60;4.72;;;;;;;25.58;45.48;100903.34;5554014;32;33607;-60
2023/07/07 08:28:11;;;;;;;7.87;5.10;;;;;;;25.58;46.72;100906.06;5566951;32;34326;-59
2023/07/07 08:31:14;;;;;;;8.52;4.78;;;;;;;25.58;47.17;100904.13;5567586;32;34462;-59
2023/07/07 08:34:17;;;;;;;13.45;5.12;;;;;;;25.59;45.70;100908.44;5567330;32;34462;-60
2023/07/07 08:37:20;;;;;;;6.43;4.80;;;;;;;25.59;45.61;100904.91;5566551;32;33244;-60
2023/07/07 08:40:27;;;;;;;11.82;4.68;;;;;;;25.60;44.88;100906.50;5567629;32;34297;-60
2023/07/07 08:43:30;;;;;;;6.55;4.80;;;;;;;25.53;47.20;100907.97;5561657;32;33574;-60
2023/07/07 08:46:42;;;;;;;7.75;4.75;;;;;;;25.21;44.97;100903.94;5566913;32;33652;-59
2023/07/07 08:49:49;;;;;;;7.68;4.40;;;;;;;25.11;45.23;100908.06;5567205;32;33827;-60
2023/07/07 08:53:26;;;;;;;6.82;4.62;;;;;;;25.18;47.54;100912.91;5567416;32;34791;-59
2023/07/07 08:56:35;;;;;;;8.95;5.00;;;;;;;25.28;44.26;100912.28;5559839;32;33777;-60
2023/07/07 08:59:51;;;;;;;7.82;4.53;;;;;;;25.19;45.50;100912.50;5567796;32;33587;-60
2023/07/07 09:03:00;;;;;;;8.05;4.25;;;;;;;25.27;47.34;100911.50;5568972;32;34280;-60
2023/07/07 09:06:15;;;;;;;9.88;4.87;;;;;;;25.41;44.86;100921.09;5569751;32;33576;-61
2023/07/07 09:09:42;;;;;;;;;;;;;;;25.58;44.15;100912.34;5567895;32;33646;-61
2023/07/07 09:12:56;;;;;;;11.15;5.10;;;;;;;25.70;43.02;100919.59;5568353;32;34563;-61
2023/07/07 09:16:09;;;;;;;5.65;4.00;;;;;;;25.63;43.65;100922.22;5568685;32;34327;-61
2023/07/07 09:19:19;;;;;;;6.50;4.30;;;;;;;25.60;41.83;100920.22;5568680;32;34308;-61
2023/07/07 09:22:41;;;;;;;6.93;4.70;;;;;;;25.61;45.86;100919.84;5565067;32;33632;-61
2023/07/07 09:25:57;;;;;;;8.57;4.95;;;;;;;25.63;42.69;100919.47;5567801;32;33689;-61
2023/07/07 09:29:03;;;;;;;16.55;5.32;;;;;;;25.73;41.56;100913.38;5564941;32;34101;-62
2023/07/07 09:32:11;;;;;;;9.60;4.70;;;;;;;25.86;43.19;100905.72;5569222;32;34396;-61
2023/07/07 09:35:14;;;;;;;8.65;5.43;;;;;;;26.08;42.62;100913.06;5567939;32;33780;-61
2023/07/07 09:38:29;;;;;;;9.48;4.68;;;;;;;26.06;41.62;100912.69;5566387;32;34594;-62
2023/07/07 09:42:03;;;;;;;10.00;5.60;;;;;;;26.10;42.07;100916.25;5567707;32;33351;-62
2023/07/07 09:45:17;;;;;;;7.43;4.62;;;;;;;26.06;42.89;100922.84;5569091;32;33683;-61
2023/07/07 09:48:38;;;;;;;7.53;5.05;;;;;;;26.13;42.05;100921.00;5567206;32;34294;-61
2023/07/07 09:52:29;;;;;;;7.47;5.25;;;;;;;26.06;42.21;100918.16;5569549;32;34343;-62
2023/07/07 09:55:36;;;;;;;6.43;4.75;;;;;;;26.02;39.63;100929.09;5562769;32;33620;-62
2023/07/07 09:58:50;;;;;;;11.27;5.18;;;;;;;25.95;39.62;100922.72;5568740;32;34451;-61
2023/07/07 10:01:55;;;;;;;6.95;5.07;;;;;;;26.06;39.85;100920.91;5569192;32;33653;-61
2023/07/07 10:05:03;;;;;;;9.23;4.95;;;;;;;26.06;37.64;100912.69;5568759;32;33657;-61
2023/07/07 10:08:11;;;;;;;9.63;5.20;;;;;;;26.27;38.42;100919.59;5568913;32;34217;-62
2023/07/07 10:11:24;;;;;;;8.70;4.80;;;;;;;26.33;37.31;100913.41;5568951;32;33701;-61
2023/07/07 10:14:31;;;;;;;6.60;4.53;;;;;;;26.35;38.66;100913.81;5569063;32;34300;-59
2023/07/07 10:17:49;;;;;;;10.40;5.25;;;;;;;26.53;38.62;100921.50;5569295;32;33415;-60
2023/07/07 10:20:55;;;;;;;8.50;4.95;;;;;;;26.44;37.53;100924.50;5568611;32;34347;-59
2023/07/07 10:23:58;;;;;;;7.53;5.20;;;;;;;26.41;39.11;100925.25;5568476;32;33727;-59
2023/07/07 10:27:00;;;;;;;9.35;4.82;;;;;;;26.38;39.89;100926.00;5565721;32;33269;-59
2023/07/07 10:30:04;;;;;;;9.18;4.90;;;;;;;26.29;38.68;100918.06;5568603;32;33809;-59
2023/07/07 10:33:12;;;;;;;9.10;5.43;;;;;;;26.17;39.06;100927.34;5568264;32;33984;-59
2023/07/07 10:36:23;;;;;;;8.98;5.15;;;;;;;26.08;37.96;100924.06;5569085;32;34394;-59
2023/07/07 10:39:28;;;;;;;10.02;4.60;;;;;;;26.27;38.99;100922.34;5564975;32;33775;-59
2023/07/07 10:42:32;;;;;;;7.40;5.03;;;;;;;26.39;40.84;100927.59;5569286;32;34485;-59
2023/07/07 10:45:34;;;;;;;13.18;4.95;;;;;;;26.43;38.32;100920.19;5567761;32;34394;-59
2023/07/07 10:48:39;;;;;;;8.02;5.35;;;;;;;26.56;38.18;100916.06;5566343;32;33481;-59
2023/07/07 10:52:00;;;;;;;8.73;4.60;;;;;;;26.41;38.52;100914.28;5566803;32;33909;-60
2023/07/07 10:55:27;;;;;;;10.48;4.75;;;;;;;26.40;38.29;100905.22;5562513;32;33677;-59
2023/07/07 10:58:47;;;;;;;7.62;4.85;;;;;;;26.55;39.22;100905.41;5561125;32;33737;-59
2023/07/07 11:01:58;;;;;;;8.65;4.93;;;;;;;26.64;38.63;100912.19;5565273;32;33593;-59
2023/07/07 11:05:20;;;;;;;10.27;4.85;;;;;;;26.58;38.67;100913.69;5555488;32;33867;-59
2023/07/07 11:08:57;;;;;;;6.68;4.62;;;;;;;26.61;36.83;100912.94;5549433;32;33846;-59
2023/07/07 11:12:14;;;;;;;7.37;4.95;;;;;;;26.52;37.06;100906.94;5549585;32;33610;-59
2023/07/07 11:15:27;;;;;;;9.88;4.65;;;;;;;26.46;37.39;100905.69;5548709;32;34141;-59
2023/07/07 11:18:55;;;;;;;5.87;4.07;;;;;;;26.46;37.89;100900.19;5549019;32;34350;-59
2023/07/07 11:22:05;;;;;;;11.73;5.55;;;;;;;26.53;39.13;100905.00;5564835;32;34350;-59
2023/07/07 11:25:33;;;;;;;9.40;5.00;;;;;;;26.51;39.02;100897.13;5567413;32;33754;-61
2023/07/07 11:28:54;;;;;;;8.82;4.60;;;;;;;26.55;39.78;100911.69;5539216;31;34272;-61
2023/07/07 11:32:35;;;;;;;8.45;4.72;;;;;;;26.64;37.81;100898.44;5568661;32;33716;-61
2023/07/07 11:35:38;;;;;;;8.52;4.87;;;;;;;26.65;37.81;100900.03;5490616;32;34111;-61
2023/07/07 11:38:59;;;;;;;7.28;4.85;;;;;;;26.58;36.95;100896.41;5568599;32;33749;-61
2023/07/07 11:42:18;;;;;;;8.77;5.00;;;;;;;26.62;38.45;100898.06;5565989;32;33726;-62
2023/07/07 11:45:36;;;;;;;8.57;4.85;;;;;;;26.75;39.10;100898.56;5568168;32;34298;-62
2023/07/07 11:49:10;;;;;;;8.98;4.87;;;;;;;26.84;38.27;100899.03;5568433;32;33584;-61
2023/07/07 11:52:42;;;;;;;9.18;4.97;;;;;;;26.72;37.82;100893.81;5511957;31;34316;-62
2023/07/07 11:55:57;;;;;;;8.90;4.95;;;;;;;26.71;39.07;100894.97;5568558;32;34734;-61
2023/07/07 11:59:25;;;;;;;9.25;4.60;;;;;;;26.77;38.67;100898.97;5568461;32;33778;-61
2023/07/07 12:02:32;;;;;;;8.73;5.05;;;;;;;26.94;37.66;100886.56;5568241;32;34385;-61
2023/07/07 12:05:37;;;;;;;7.82;4.43;;;;;;;27.07;37.72;100885.09;5567590;32;34423;-61
2023/07/07 12:08:48;;;;;;;8.15;4.62;;;;;;;26.84;37.86;100887.25;5567560;32;34439;-62
2023/07/07 12:12:06;;;;;;;10.25;5.05;;;;;;;26.79;38.21;100895.84;5567185;32;33818;-61
2023/07/07 12:15:25;;;;;;;6.80;4.80;;;;;;;26.66;37.09;100887.87;5561327;32;33747;-61
2023/07/07 12:18:35;;;;;;;8.00;4.65;;;;;;;26.66;37.35;100876.88;5566703;32;33658;-61
2023/07/07 12:21:39;;;;;;;9.00;4.75;;;;;;;26.70;37.21;100885.94;5566459;32;33736;-61
2023/07/07 12:24:51;;;;;;;6.75;4.40;;;;;;;26.60;38.67;100888.59;5567689;32;33785;-61
2023/07/07 12:27:54;;;;;;;7.05;4.60;;;;;;;26.59;39.03;100893.31;5568673;32;33674;-61
2023/07/07 12:30:57;;;;;;;8.43;4.45;;;;;;;26.57;37.35;100886.59;5570056;32;33685;-61
2023/07/07 12:34:37;;;;;;;6.97;4.62;;;;;;;26.56;38.51;100885.81;5569276;32;33669;-61
2023/07/07 12:37:40;;;;;;;7.37;4.60;;;;;;;26.67;38.09;100872.94;5570358;32;33818;-60
2023/07/07 12:40:44;;;;;;;8.88;4.90;;;;;;;26.86;38.33;100868.41;5569605;32;33780;-61
2023/07/07 12:43:58;;;;;;;9.32;4.87;;;;;;;26.83;38.91;100869.16;5566594;32;33631;-61
2023/07/07 12:47:27;;;;;;;9.35;4.53;;;;;;;26.76;38.03;100869.09;5570048;32;33769;-60
2023/07/07 12:50:35;;;;;;;6.78;4.65;;;;;;;26.70;38.28;100866.69;5569898;32;33407;-61
2023/07/07 12:53:42;;;;;;;8.43;4.55;;;;;;;26.64;39.96;100862.69;5569231;32;33457;-60
2023/07/07 12:57:11;;;;;;;8.30;4.25;;;;;;;26.70;38.18;100866.69;5569868;32;34115;-61
2023/07/07 13:00:32;;;;;;;8.90;4.75;;;;;;;26.88;37.74;100871.56;5562323;31;33856;-60
2023/07/07 13:03:53;;;;;;;7.43;4.60;;;;;;;26.87;37.89;100857.03;5570058;32;33677;-61
2023/07/07 13:06:56;;;;;;;5.90;3.80;;;;;;;26.91;35.93;100865.31;5569856;32;34383;-61
2023/07/07 13:10:02;;;;;;;6.95;4.10;;;;;;;26.87;38.26;100867.25;5570337;32;33623;-60
2023/07/07 13:13:15;;;;;;;7.12;4.37;;;;;;;26.94;38.72;100865.31;5570200;32;33832;-61
2023/07/07 13:16:22;;;;;;;6.12;4.32;;;;;;;26.94;40.74;100864.53;5569813;32;34425;-60
2023/07/07 13:19:24;;;;;;;6.32;4.47;;;;;;;26.97;39.46;100858.28;5570422;32;33677;-61
2023/07/07 13:22:36;;;;;;;9.02;4.28;;;;;;;27.02;39.25;100855.19;5569770;32;34391;-60
2023/07/07 13:25:38;;;;;;;9.27;4.43;;;;;;;27.00;37.58;100857.53;5569689;32;33856;-60
2023/07/07 13:28:40;;;;;;;7.57;4.55;;;;;;;27.14;36.87;100862.38;5569962;32;34367;-60
2023/07/07 13:31:43;;;;;;;8.88;4.47;;;;;;;27.11;37.53;100868.59;5569693;32;33701;-61
2023/07/07 13:34:45;;;;;;;6.53;4.50;;;;;;;27.06;36.23;100858.75;5570043;32;33611;-61
2023/07/07 13:37:47;;;;;;;7.57;4.25;;;;;;;27.08;37.14;100864.66;5568950;32;33575;-61
2023/07/07 13:40:50;;;;;;;9.77;4.93;;;;;;;27.06;37.88;100863.47;5569548;32;33782;-61
2023/07/07 13:43:54;;;;;;;11.55;4.85;;;;;;;27.01;36.97;100861.84;5570076;32;33659;-61
2023/07/07 13:47:06;;;;;;;8.38;4.15;;;;;;;27.09;38.09;100865.47;5569868;32;33726;-61
2023/07/07 13:50:24;;;;;;;10.70;4.65;;;;;;;27.20;38.27;100858.09;5569718;32;33901;-61
2023/07/07 13:53:27;;;;;;;10.80;4.35;;;;;;;27.12;35.67;100853.69;5569963;32;34309;-62
2023/07/07 13:56:33;;;;;;;7.18;4.22;;;;;;;27.00;36.47;100863.03;5569616;32;33983;-62
2023/07/07 13:59:35;;;;;;;7.40;4.30;;;;;;;27.06;36.90;100852.47;5569193;32;33601;-62
2023/07/07 14:02:41;;;;;;;6.75;3.60;;;;;;;27.13;36.06;100853.34;5569315;32;34189;-61
2023/07/07 14:05:47;;;;;;;5.87;3.60;;;;;;;27.10;36.14;100854.06;5568698;32;34718;-61
2023/07/07 14:08:50;;;;;;;14.27;4.10;;;;;;;27.12;37.71;100857.25;5569239;32;33716;-61
2023/07/07 14:11:55;;;;;;;7.72;4.00;;;;;;;27.22;35.43;100847.50;5568466;32;33801;-61
2023/07/07 14:14:58;;;;;;;;;;;;;;;27.17;35.70;100856.91;5570235;31;33770;-62
2023/07/07 14:18:05;;;;;;;7.37;3.92;;;;;;;27.17;35.45;100851.41;5569782;32;33917;-62
2023/07/07 14:21:16;;;;;;;7.12;3.62;;;;;;;27.27;34.34;100849.88;5569649;32;34372;-61
2023/07/07 14:24:27;;;;;;;6.20;3.42;;;;;;;27.25;33.73;100849.50;5569312;32;33630;-62
2023/07/07 14:27:31;;;;;;;9.25;3.80;;;;;;;27.15;34.39;100842.75;5569450;32;33662;-62
2023/07/07 14:30:33;;;;;;;6.57;3.55;;;;;;;27.23;35.20;100845.53;5569508;32;33479;-62
2023/07/07 14:34:02;;;;;;;5.07;3.60;;;;;;;27.23;35.21;100851.84;5569121;32;33616;-62
2023/07/07 14:37:05;;;;;;;6.70;3.95;;;;;;;27.43;35.11;100846.06;5569468;32;34454;-62
2023/07/07 14:40:43;;;;;;;8.77;4.20;;;;;;;27.33;33.70;100848.38;5569250;32;33654;-62
2023/07/07 14:43:46;;;;;;;8.43;4.22;;;;;;;27.31;33.94;100849.91;5557789;32;33657;-62
